sensor_id;sensor_type;location;lat;lon;timestamp;P1;durP1;ratioP1;P2;durP2;ratioP2
46971;SDS011;32722;43.486;2.766;2022-12-07T00:01:31;7.32;;;3.28;;
46971;SDS011;32722;43.486;2.766;2022-12-07T00:03:59;6.47;;;3.53;;
46971;SDS011;32722;43.486;2.766;2022-12-07T00:06:35;14.98;;;7.95;;
46971;SDS011;32722;43.486;2.766;2022-12-07T00:09:02;72.63;;;32.33;;
46971;SDS011;32722;43.486;2.766;2022-12-07T00:11:28;62.05;;;29.73;;
46971;SDS011;32722;43.486;2.766;2022-12-07T00:13:55;56.28;;;26.80;;
46971;SDS011;32722;43.486;2.766;2022-12-07T00:16:23;26.13;;;12.73;;
46971;SDS011;32722;43.486;2.766;2022-12-07T00:18:49;146.50;;;61.65;;
46971;SDS011;32722;43.486;2.766;2022-12-07T00:21:16;89.22;;;41.38;;
46971;SDS011;32722;43.486;2.766;2022-12-07T00:23:43;58.50;;;29.25;;
46971;SDS011;32722;43.486;2.766;2022-12-07T00:28:39;29.90;;;14.38;;
46971;SDS011;32722;43.486;2.766;2022-12-07T00:31:09;19.13;;;10.13;;
46971;SDS011;32722;43.486;2.766;2022-12-07T00:33:36;28.38;;;15.52;;
46971;SDS011;32722;43.486;2.766;2022-12-07T00:36:03;31.20;;;18.15;;
46971;SDS011;32722;43.486;2.766;2022-12-07T00:38:31;22.05;;;12.50;;
46971;SDS011;32722;43.486;2.766;2022-12-07T00:41:01;8.93;;;5.53;;
46971;SDS011;32722;43.486;2.766;2022-12-07T00:43:28;9.32;;;5.97;;
46971;SDS011;32722;43.486;2.766;2022-12-07T00:45:54;12.32;;;6.35;;
46971;SDS011;32722;43.486;2.766;2022-12-07T00:48:21;15.43;;;7.93;;
46971;SDS011;32722;43.486;2.766;2022-12-07T00:50:47;12.95;;;7.32;;
46971;SDS011;32722;43.486;2.766;2022-12-07T00:53:13;23.60;;;12.55;;
46971;SDS011;32722;43.486;2.766;2022-12-07T00:55:39;26.13;;;14.98;;
46971;SDS011;32722;43.486;2.766;2022-12-07T00:58:05;32.80;;;17.13;;
46971;SDS011;32722;43.486;2.766;2022-12-07T01:00:31;65.57;;;33.22;;
46971;SDS011;32722;43.486;2.766;2022-12-07T01:02:58;69.28;;;34.50;;
46971;SDS011;32722;43.486;2.766;2022-12-07T01:05:24;102.20;;;50.53;;
46971;SDS011;32722;43.486;2.766;2022-12-07T01:07:51;78.82;;;40.47;;
46971;SDS011;32722;43.486;2.766;2022-12-07T01:10:17;75.53;;;38.25;;
46971;SDS011;32722;43.486;2.766;2022-12-07T01:12:43;57.95;;;29.42;;
46971;SDS011;32722;43.486;2.766;2022-12-07T01:15:09;33.83;;;16.38;;
46971;SDS011;32722;43.486;2.766;2022-12-07T01:17:35;32.83;;;16.95;;
46971;SDS011;32722;43.486;2.766;2022-12-07T01:20:02;45.55;;;23.98;;
46971;SDS011;32722;43.486;2.766;2022-12-07T01:22:28;44.08;;;22.23;;
46971;SDS011;32722;43.486;2.766;2022-12-07T01:24:55;32.13;;;17.02;;
46971;SDS011;32722;43.486;2.766;2022-12-07T01:27:21;28.77;;;15.27;;
46971;SDS011;32722;43.486;2.766;2022-12-07T01:29:47;20.55;;;11.40;;
46971;SDS011;32722;43.486;2.766;2022-12-07T01:32:13;19.85;;;10.55;;
46971;SDS011;32722;43.486;2.766;2022-12-07T01:34:39;22.95;;;12.68;;
46971;SDS011;32722;43.486;2.766;2022-12-07T01:37:05;12.82;;;6.53;;
46971;SDS011;32722;43.486;2.766;2022-12-07T01:39:31;7.75;;;5.00;;
46971;SDS011;32722;43.486;2.766;2022-12-07T01:41:58;11.05;;;3.70;;
46971;SDS011;32722;43.486;2.766;2022-12-07T01:44:28;5.60;;;3.15;;
46971;SDS011;32722;43.486;2.766;2022-12-07T01:47:01;9.07;;;3.15;;
46971;SDS011;32722;43.486;2.766;2022-12-07T01:51:57;3.90;;;2.55;;
46971;SDS011;32722;43.486;2.766;2022-12-07T01:54:24;3.65;;;2.53;;
46971;SDS011;32722;43.486;2.766;2022-12-07T01:56:51;5.75;;;3.90;;
46971;SDS011;32722;43.486;2.766;2022-12-07T01:59:19;5.35;;;3.15;;
46971;SDS011;32722;43.486;2.766;2022-12-07T02:01:47;7.05;;;3.05;;
46971;SDS011;32722;43.486;2.766;2022-12-07T02:04:13;6.90;;;3.58;;
46971;SDS011;32722;43.486;2.766;2022-12-07T02:06:40;4.07;;;2.92;;
46971;SDS011;32722;43.486;2.766;2022-12-07T02:09:07;8.18;;;4.18;;
46971;SDS011;32722;43.486;2.766;2022-12-07T02:11:33;4.97;;;2.85;;
46971;SDS011;32722;43.486;2.766;2022-12-07T02:13:59;6.45;;;2.40;;
46971;SDS011;32722;43.486;2.766;2022-12-07T02:16:29;4.78;;;3.30;;
46971;SDS011;32722;43.486;2.766;2022-12-07T02:29:27;4.75;;;2.95;;
46971;SDS011;32722;43.486;2.766;2022-12-07T02:32:03;4.03;;;2.63;;
46971;SDS011;32722;43.486;2.766;2022-12-07T02:34:43;4.15;;;3.20;;
46971;SDS011;32722;43.486;2.766;2022-12-07T02:37:21;5.72;;;3.03;;
46971;SDS011;32722;43.486;2.766;2022-12-07T02:42:18;5.32;;;2.88;;
46971;SDS011;32722;43.486;2.766;2022-12-07T02:44:46;5.25;;;3.42;;
46971;SDS011;32722;43.486;2.766;2022-12-07T02:47:14;6.93;;;2.83;;
46971;SDS011;32722;43.486;2.766;2022-12-07T02:49:41;4.75;;;3.20;;
46971;SDS011;32722;43.486;2.766;2022-12-07T02:52:08;6.68;;;3.92;;
46971;SDS011;32722;43.486;2.766;2022-12-07T02:54:34;13.70;;;6.72;;
46971;SDS011;32722;43.486;2.766;2022-12-07T02:59:36;7.20;;;3.17;;
46971;SDS011;32722;43.486;2.766;2022-12-07T03:07:06;19.73;;;9.38;;
46971;SDS011;32722;43.486;2.766;2022-12-07T03:09:45;7.03;;;4.55;;
46971;SDS011;32722;43.486;2.766;2022-12-07T03:12:18;26.83;;;12.80;;
46971;SDS011;32722;43.486;2.766;2022-12-07T03:14:52;19.58;;;10.07;;
46971;SDS011;32722;43.486;2.766;2022-12-07T03:17:24;28.25;;;14.80;;
46971;SDS011;32722;43.486;2.766;2022-12-07T03:19:51;20.10;;;9.07;;
46971;SDS011;32722;43.486;2.766;2022-12-07T03:22:20;18.83;;;10.73;;
46971;SDS011;32722;43.486;2.766;2022-12-07T03:25:06;22.83;;;11.68;;
46971;SDS011;32722;43.486;2.766;2022-12-07T03:27:42;17.92;;;8.88;;
46971;SDS011;32722;43.486;2.766;2022-12-07T03:30:17;14.15;;;7.55;;
46971;SDS011;32722;43.486;2.766;2022-12-07T03:32:53;8.63;;;4.38;;
46971;SDS011;32722;43.486;2.766;2022-12-07T03:35:42;8.40;;;4.35;;
46971;SDS011;32722;43.486;2.766;2022-12-07T03:38:25;6.97;;;3.90;;
46971;SDS011;32722;43.486;2.766;2022-12-07T03:41:09;7.30;;;3.65;;
46971;SDS011;32722;43.486;2.766;2022-12-07T03:43:37;4.20;;;2.38;;
46971;SDS011;32722;43.486;2.766;2022-12-07T03:51:03;7.97;;;4.68;;
46971;SDS011;32722;43.486;2.766;2022-12-07T03:53:44;15.13;;;7.65;;
46971;SDS011;32722;43.486;2.766;2022-12-07T03:56:12;6.35;;;3.53;;
46971;SDS011;32722;43.486;2.766;2022-12-07T03:58:38;11.48;;;5.47;;
46971;SDS011;32722;43.486;2.766;2022-12-07T04:01:05;6.28;;;3.42;;
46971;SDS011;32722;43.486;2.766;2022-12-07T04:03:32;4.43;;;2.60;;
46971;SDS011;32722;43.486;2.766;2022-12-07T04:05:58;3.92;;;2.70;;
46971;SDS011;32722;43.486;2.766;2022-12-07T04:08:24;9.75;;;5.57;;
46971;SDS011;32722;43.486;2.766;2022-12-07T04:10:51;4.13;;;2.45;;
46971;SDS011;32722;43.486;2.766;2022-12-07T04:13:17;3.28;;;2.17;;
46971;SDS011;32722;43.486;2.766;2022-12-07T04:15:43;3.58;;;2.00;;
46971;SDS011;32722;43.486;2.766;2022-12-07T04:18:09;12.63;;;6.22;;
46971;SDS011;32722;43.486;2.766;2022-12-07T04:20:35;7.78;;;4.25;;
46971;SDS011;32722;43.486;2.766;2022-12-07T04:23:01;8.52;;;4.15;;
46971;SDS011;32722;43.486;2.766;2022-12-07T04:25:27;7.22;;;3.83;;
46971;SDS011;32722;43.486;2.766;2022-12-07T04:27:53;5.95;;;3.30;;
46971;SDS011;32722;43.486;2.766;2022-12-07T04:30:20;4.53;;;2.80;;
46971;SDS011;32722;43.486;2.766;2022-12-07T04:32:46;7.28;;;4.40;;
46971;SDS011;32722;43.486;2.766;2022-12-07T04:35:12;4.10;;;2.65;;
46971;SDS011;32722;43.486;2.766;2022-12-07T04:37:38;4.43;;;2.92;;
46971;SDS011;32722;43.486;2.766;2022-12-07T04:40:06;9.35;;;4.07;;
46971;SDS011;32722;43.486;2.766;2022-12-07T04:42:32;3.92;;;2.65;;
46971;SDS011;32722;43.486;2.766;2022-12-07T04:44:58;4.20;;;2.75;;
46971;SDS011;32722;43.486;2.766;2022-12-07T04:47:24;5.75;;;3.63;;
46971;SDS011;32722;43.486;2.766;2022-12-07T04:49:51;4.97;;;3.25;;
46971;SDS011;32722;43.486;2.766;2022-12-07T04:52:17;4.40;;;2.88;;
46971;SDS011;32722;43.486;2.766;2022-12-07T04:54:43;5.32;;;2.60;;
46971;SDS011;32722;43.486;2.766;2022-12-07T04:57:09;3.88;;;2.50;;
46971;SDS011;32722;43.486;2.766;2022-12-07T04:59:35;5.45;;;2.97;;
46971;SDS011;32722;43.486;2.766;2022-12-07T05:02:01;3.88;;;2.85;;
46971;SDS011;32722;43.486;2.766;2022-12-07T05:04:27;4.45;;;2.40;;
46971;SDS011;32722;43.486;2.766;2022-12-07T05:06:54;3.50;;;2.40;;
46971;SDS011;32722;43.486;2.766;2022-12-07T05:09:20;6.20;;;3.65;;
46971;SDS011;32722;43.486;2.766;2022-12-07T05:11:46;4.28;;;2.45;;
46971;SDS011;32722;43.486;2.766;2022-12-07T05:14:14;4.72;;;3.20;;
46971;SDS011;32722;43.486;2.766;2022-12-07T05:16:40;4.50;;;2.72;;
46971;SDS011;32722;43.486;2.766;2022-12-07T05:19:07;3.92;;;2.72;;
46971;SDS011;32722;43.486;2.766;2022-12-07T05:21:34;6.13;;;3.20;;
46971;SDS011;32722;43.486;2.766;2022-12-07T05:24:00;4.90;;;2.70;;
46971;SDS011;32722;43.486;2.766;2022-12-07T05:26:27;5.32;;;2.83;;
46971;SDS011;32722;43.486;2.766;2022-12-07T05:28:54;4.13;;;2.65;;
46971;SDS011;32722;43.486;2.766;2022-12-07T05:31:21;5.38;;;2.97;;
46971;SDS011;32722;43.486;2.766;2022-12-07T05:33:47;4.20;;;2.45;;
46971;SDS011;32722;43.486;2.766;2022-12-07T05:36:13;3.70;;;2.60;;
46971;SDS011;32722;43.486;2.766;2022-12-07T05:38:40;3.97;;;2.38;;
46971;SDS011;32722;43.486;2.766;2022-12-07T05:41:06;4.07;;;2.47;;
46971;SDS011;32722;43.486;2.766;2022-12-07T05:43:52;4.22;;;2.30;;
46971;SDS011;32722;43.486;2.766;2022-12-07T05:46:19;4.03;;;2.45;;
46971;SDS011;32722;43.486;2.766;2022-12-07T05:48:45;3.47;;;2.17;;
46971;SDS011;32722;43.486;2.766;2022-12-07T05:51:11;2.58;;;2.00;;
46971;SDS011;32722;43.486;2.766;2022-12-07T05:53:37;4.40;;;2.45;;
46971;SDS011;32722;43.486;2.766;2022-12-07T05:56:03;3.25;;;2.42;;
46971;SDS011;32722;43.486;2.766;2022-12-07T05:58:29;5.78;;;2.40;;
46971;SDS011;32722;43.486;2.766;2022-12-07T06:01:14;6.10;;;2.40;;
46971;SDS011;32722;43.486;2.766;2022-12-07T06:03:40;3.95;;;2.88;;
46971;SDS011;32722;43.486;2.766;2022-12-07T06:06:06;4.60;;;2.78;;
46971;SDS011;32722;43.486;2.766;2022-12-07T06:08:32;3.47;;;2.33;;
46971;SDS011;32722;43.486;2.766;2022-12-07T06:10:59;3.25;;;1.92;;
46971;SDS011;32722;43.486;2.766;2022-12-07T06:13:43;4.45;;;2.28;;
46971;SDS011;32722;43.486;2.766;2022-12-07T06:16:09;2.75;;;2.13;;
46971;SDS011;32722;43.486;2.766;2022-12-07T06:18:36;5.43;;;2.63;;
46971;SDS011;32722;43.486;2.766;2022-12-07T06:21:02;4.50;;;2.20;;
46971;SDS011;32722;43.486;2.766;2022-12-07T06:23:28;2.35;;;1.98;;
46971;SDS011;32722;43.486;2.766;2022-12-07T06:25:54;4.95;;;2.10;;
46971;SDS011;32722;43.486;2.766;2022-12-07T06:28:20;3.65;;;2.20;;
46971;SDS011;32722;43.486;2.766;2022-12-07T06:30:46;3.30;;;1.95;;
46971;SDS011;32722;43.486;2.766;2022-12-07T06:33:12;4.32;;;2.15;;
46971;SDS011;32722;43.486;2.766;2022-12-07T06:35:38;2.72;;;1.83;;
46971;SDS011;32722;43.486;2.766;2022-12-07T06:38:04;5.72;;;2.25;;
46971;SDS011;32722;43.486;2.766;2022-12-07T06:40:31;3.83;;;2.45;;
46971;SDS011;32722;43.486;2.766;2022-12-07T06:42:57;3.47;;;2.42;;
46971;SDS011;32722;43.486;2.766;2022-12-07T06:45:23;3.05;;;1.90;;
46971;SDS011;32722;43.486;2.766;2022-12-07T06:47:49;3.20;;;2.10;;
46971;SDS011;32722;43.486;2.766;2022-12-07T06:50:15;4.47;;;2.35;;
46971;SDS011;32722;43.486;2.766;2022-12-07T06:52:42;2.17;;;1.73;;
46971;SDS011;32722;43.486;2.766;2022-12-07T06:55:08;2.05;;;1.85;;
46971;SDS011;32722;43.486;2.766;2022-12-07T06:57:34;2.00;;;1.80;;
46971;SDS011;32722;43.486;2.766;2022-12-07T07:00:00;3.17;;;2.08;;
46971;SDS011;32722;43.486;2.766;2022-12-07T07:02:26;4.47;;;2.28;;
46971;SDS011;32722;43.486;2.766;2022-12-07T07:04:53;4.18;;;1.80;;
46971;SDS011;32722;43.486;2.766;2022-12-07T07:07:19;3.17;;;1.75;;
46971;SDS011;32722;43.486;2.766;2022-12-07T07:09:45;2.47;;;1.85;;
46971;SDS011;32722;43.486;2.766;2022-12-07T07:12:11;2.88;;;1.83;;
46971;SDS011;32722;43.486;2.766;2022-12-07T07:14:37;2.00;;;1.75;;
46971;SDS011;32722;43.486;2.766;2022-12-07T07:17:03;3.08;;;2.20;;
46971;SDS011;32722;43.486;2.766;2022-12-07T07:19:29;5.88;;;2.92;;
46971;SDS011;32722;43.486;2.766;2022-12-07T07:21:55;5.45;;;3.50;;
46971;SDS011;32722;43.486;2.766;2022-12-07T07:24:22;5.53;;;4.15;;
46971;SDS011;32722;43.486;2.766;2022-12-07T07:26:48;6.63;;;3.65;;
46971;SDS011;32722;43.486;2.766;2022-12-07T07:29:14;4.63;;;3.35;;
46971;SDS011;32722;43.486;2.766;2022-12-07T07:31:40;5.20;;;3.20;;
46971;SDS011;32722;43.486;2.766;2022-12-07T07:34:06;5.35;;;3.40;;
46971;SDS011;32722;43.486;2.766;2022-12-07T07:36:32;3.38;;;2.60;;
46971;SDS011;32722;43.486;2.766;2022-12-07T07:38:58;4.53;;;3.15;;
46971;SDS011;32722;43.486;2.766;2022-12-07T07:41:25;5.50;;;3.75;;
46971;SDS011;32722;43.486;2.766;2022-12-07T07:43:51;4.28;;;3.10;;
46971;SDS011;32722;43.486;2.766;2022-12-07T07:46:17;6.10;;;3.90;;
46971;SDS011;32722;43.486;2.766;2022-12-07T07:48:43;7.50;;;4.72;;
46971;SDS011;32722;43.486;2.766;2022-12-07T07:51:09;6.25;;;4.30;;
46971;SDS011;32722;43.486;2.766;2022-12-07T07:53:39;5.65;;;3.95;;
46971;SDS011;32722;43.486;2.766;2022-12-07T07:56:05;5.47;;;3.80;;
46971;SDS011;32722;43.486;2.766;2022-12-07T07:58:31;6.03;;;3.80;;
46971;SDS011;32722;43.486;2.766;2022-12-07T08:01:02;6.43;;;4.00;;
46971;SDS011;32722;43.486;2.766;2022-12-07T08:03:29;5.15;;;3.45;;
46971;SDS011;32722;43.486;2.766;2022-12-07T08:05:55;6.25;;;3.75;;
46971;SDS011;32722;43.486;2.766;2022-12-07T08:08:21;4.97;;;3.38;;
46971;SDS011;32722;43.486;2.766;2022-12-07T08:10:47;6.88;;;3.63;;
46971;SDS011;32722;43.486;2.766;2022-12-07T08:13:15;7.35;;;3.97;;
46971;SDS011;32722;43.486;2.766;2022-12-07T08:15:42;8.63;;;3.45;;
46971;SDS011;32722;43.486;2.766;2022-12-07T08:18:09;5.47;;;3.20;;
46971;SDS011;32722;43.486;2.766;2022-12-07T08:20:35;6.32;;;3.13;;
46971;SDS011;32722;43.486;2.766;2022-12-07T08:23:02;5.25;;;3.05;;
46971;SDS011;32722;43.486;2.766;2022-12-07T08:25:29;5.15;;;3.15;;
46971;SDS011;32722;43.486;2.766;2022-12-07T08:27:55;4.68;;;2.80;;
46971;SDS011;32722;43.486;2.766;2022-12-07T08:30:21;9.77;;;5.38;;
46971;SDS011;32722;43.486;2.766;2022-12-07T08:32:47;10.05;;;4.93;;
46971;SDS011;32722;43.486;2.766;2022-12-07T08:35:14;4.57;;;3.15;;
46971;SDS011;32722;43.486;2.766;2022-12-07T08:37:40;2.55;;;2.00;;
46971;SDS011;32722;43.486;2.766;2022-12-07T08:40:07;3.70;;;2.53;;
46971;SDS011;32722;43.486;2.766;2022-12-07T08:42:34;4.63;;;2.10;;
46971;SDS011;32722;43.486;2.766;2022-12-07T08:47:30;5.43;;;2.40;;
46971;SDS011;32722;43.486;2.766;2022-12-07T08:49:57;4.22;;;2.10;;
46971;SDS011;32722;43.486;2.766;2022-12-07T08:54:54;3.65;;;2.38;;
46971;SDS011;32722;43.486;2.766;2022-12-07T08:57:21;5.00;;;2.42;;
46971;SDS011;32722;43.486;2.766;2022-12-07T08:59:47;30.65;;;13.40;;
46971;SDS011;32722;43.486;2.766;2022-12-07T09:02:13;12.43;;;4.63;;
46971;SDS011;32722;43.486;2.766;2022-12-07T09:04:39;4.00;;;2.63;;
46971;SDS011;32722;43.486;2.766;2022-12-07T09:07:05;4.18;;;2.67;;
46971;SDS011;32722;43.486;2.766;2022-12-07T09:09:32;3.22;;;2.15;;
46971;SDS011;32722;43.486;2.766;2022-12-07T09:11:58;10.63;;;4.97;;
46971;SDS011;32722;43.486;2.766;2022-12-07T09:14:24;7.30;;;3.45;;
46971;SDS011;32722;43.486;2.766;2022-12-07T09:16:50;11.80;;;6.40;;
46971;SDS011;32722;43.486;2.766;2022-12-07T09:19:17;3.30;;;2.35;;
46971;SDS011;32722;43.486;2.766;2022-12-07T09:21:43;8.88;;;3.53;;
46971;SDS011;32722;43.486;2.766;2022-12-07T09:24:09;3.58;;;2.00;;
46971;SDS011;32722;43.486;2.766;2022-12-07T09:26:35;3.30;;;1.98;;
46971;SDS011;32722;43.486;2.766;2022-12-07T09:29:02;2.85;;;1.85;;
46971;SDS011;32722;43.486;2.766;2022-12-07T09:31:28;1.92;;;1.35;;
46971;SDS011;32722;43.486;2.766;2022-12-07T09:33:58;3.47;;;1.38;;
46971;SDS011;32722;43.486;2.766;2022-12-07T09:36:25;5.20;;;2.53;;
46971;SDS011;32722;43.486;2.766;2022-12-07T09:38:52;1.33;;;0.93;;
46971;SDS011;32722;43.486;2.766;2022-12-07T09:41:18;5.13;;;2.60;;
46971;SDS011;32722;43.486;2.766;2022-12-07T09:43:44;2.92;;;2.03;;
46971;SDS011;32722;43.486;2.766;2022-12-07T09:46:13;3.38;;;2.00;;
46971;SDS011;32722;43.486;2.766;2022-12-07T09:48:40;1.80;;;1.30;;
46971;SDS011;32722;43.486;2.766;2022-12-07T09:51:21;2.45;;;1.75;;
46971;SDS011;32722;43.486;2.766;2022-12-07T09:53:48;2.65;;;1.58;;
46971;SDS011;32722;43.486;2.766;2022-12-07T09:56:15;3.92;;;1.90;;
46971;SDS011;32722;43.486;2.766;2022-12-07T09:58:41;2.70;;;1.70;;
46971;SDS011;32722;43.486;2.766;2022-12-07T10:03:37;2.75;;;1.25;;
46971;SDS011;32722;43.486;2.766;2022-12-07T10:06:04;3.63;;;1.35;;
46971;SDS011;32722;43.486;2.766;2022-12-07T10:08:31;3.15;;;1.27;;
46971;SDS011;32722;43.486;2.766;2022-12-07T10:10:58;4.35;;;2.17;;
46971;SDS011;32722;43.486;2.766;2022-12-07T10:13:34;1.85;;;1.10;;
46971;SDS011;32722;43.486;2.766;2022-12-07T10:16:02;1.65;;;1.20;;
46971;SDS011;32722;43.486;2.766;2022-12-07T10:18:30;1.98;;;1.55;;
46971;SDS011;32722;43.486;2.766;2022-12-07T10:23:35;3.17;;;1.80;;
46971;SDS011;32722;43.486;2.766;2022-12-07T10:28:47;2.47;;;0.98;;
46971;SDS011;32722;43.486;2.766;2022-12-07T10:31:17;3.75;;;1.10;;
46971;SDS011;32722;43.486;2.766;2022-12-07T10:38:53;3.97;;;1.40;;
46971;SDS011;32722;43.486;2.766;2022-12-07T10:41:24;2.00;;;1.33;;
46971;SDS011;32722;43.486;2.766;2022-12-07T10:43:51;1.52;;;1.08;;
46971;SDS011;32722;43.486;2.766;2022-12-07T10:46:32;2.72;;;1.33;;
46971;SDS011;32722;43.486;2.766;2022-12-07T10:54:01;1.70;;;1.30;;
46971;SDS011;32722;43.486;2.766;2022-12-07T11:06:57;1.23;;;0.90;;
46971;SDS011;32722;43.486;2.766;2022-12-07T11:09:34;1.80;;;1.42;;
46971;SDS011;32722;43.486;2.766;2022-12-07T11:12:08;1.80;;;1.42;;
46971;SDS011;32722;43.486;2.766;2022-12-07T11:14:52;1.73;;;1.10;;
46971;SDS011;32722;43.486;2.766;2022-12-07T11:17:22;2.75;;;0.90;;
46971;SDS011;32722;43.486;2.766;2022-12-07T11:20:02;1.40;;;1.20;;
46971;SDS011;32722;43.486;2.766;2022-12-07T11:22:42;1.40;;;1.25;;
46971;SDS011;32722;43.486;2.766;2022-12-07T11:27:37;4.13;;;1.65;;
46971;SDS011;32722;43.486;2.766;2022-12-07T11:37:55;1.98;;;1.52;;
46971;SDS011;32722;43.486;2.766;2022-12-07T11:40:30;3.45;;;1.70;;
46971;SDS011;32722;43.486;2.766;2022-12-07T11:43:05;2.72;;;2.00;;
46971;SDS011;32722;43.486;2.766;2022-12-07T11:45:33;5.45;;;1.85;;
46971;SDS011;32722;43.486;2.766;2022-12-07T11:48:01;2.65;;;2.15;;
46971;SDS011;32722;43.486;2.766;2022-12-07T11:50:38;4.03;;;2.30;;
46971;SDS011;32722;43.486;2.766;2022-12-07T11:53:10;3.35;;;2.30;;
46971;SDS011;32722;43.486;2.766;2022-12-07T11:55:50;3.53;;;1.70;;
46971;SDS011;32722;43.486;2.766;2022-12-07T11:58:23;5.05;;;1.73;;
46971;SDS011;32722;43.486;2.766;2022-12-07T12:01:01;5.55;;;4.35;;
46971;SDS011;32722;43.486;2.766;2022-12-07T12:03:34;4.13;;;2.55;;
46971;SDS011;32722;43.486;2.766;2022-12-07T12:06:02;3.22;;;2.10;;
46971;SDS011;32722;43.486;2.766;2022-12-07T12:08:50;3.28;;;2.25;;
46971;SDS011;32722;43.486;2.766;2022-12-07T12:16:48;2.78;;;1.80;;
46971;SDS011;32722;43.486;2.766;2022-12-07T12:19:27;3.35;;;2.47;;
46971;SDS011;32722;43.486;2.766;2022-12-07T12:22:03;3.78;;;2.53;;
46971;SDS011;32722;43.486;2.766;2022-12-07T12:24:30;3.72;;;1.98;;
46971;SDS011;32722;43.486;2.766;2022-12-07T12:34:39;1.88;;;1.67;;
46971;SDS011;32722;43.486;2.766;2022-12-07T12:43:00;5.00;;;2.00;;
46971;SDS011;32722;43.486;2.766;2022-12-07T12:45:29;3.90;;;2.42;;
46971;SDS011;32722;43.486;2.766;2022-12-07T12:50:36;4.95;;;2.30;;
46971;SDS011;32722;43.486;2.766;2022-12-07T12:58:33;4.00;;;2.80;;
46971;SDS011;32722;43.486;2.766;2022-12-07T13:03:54;5.47;;;2.83;;
46971;SDS011;32722;43.486;2.766;2022-12-07T13:08:50;4.25;;;3.00;;
46971;SDS011;32722;43.486;2.766;2022-12-07T13:11:20;6.85;;;2.90;;
46971;SDS011;32722;43.486;2.766;2022-12-07T13:13:50;3.47;;;2.60;;
46971;SDS011;32722;43.486;2.766;2022-12-07T13:18:43;3.65;;;2.58;;
46971;SDS011;32722;43.486;2.766;2022-12-07T13:23:36;5.78;;;2.30;;
46971;SDS011;32722;43.486;2.766;2022-12-07T13:28:48;4.38;;;2.55;;
46971;SDS011;32722;43.486;2.766;2022-12-07T13:33:56;4.28;;;2.00;;
46971;SDS011;32722;43.486;2.766;2022-12-07T13:36:30;3.13;;;1.98;;
46971;SDS011;32722;43.486;2.766;2022-12-07T13:39:10;2.80;;;1.80;;
46971;SDS011;32722;43.486;2.766;2022-12-07T13:41:37;3.97;;;2.00;;
46971;SDS011;32722;43.486;2.766;2022-12-07T13:44:17;5.45;;;2.10;;
46971;SDS011;32722;43.486;2.766;2022-12-07T13:46:51;2.08;;;1.45;;
46971;SDS011;32722;43.486;2.766;2022-12-07T13:49:25;3.83;;;1.77;;
46971;SDS011;32722;43.486;2.766;2022-12-07T13:51:51;4.35;;;2.90;;
46971;SDS011;32722;43.486;2.766;2022-12-07T13:54:18;4.97;;;2.92;;
46971;SDS011;32722;43.486;2.766;2022-12-07T13:56:47;6.60;;;3.25;;
46971;SDS011;32722;43.486;2.766;2022-12-07T13:59:16;3.70;;;1.60;;
46971;SDS011;32722;43.486;2.766;2022-12-07T14:01:43;5.03;;;2.65;;
46971;SDS011;32722;43.486;2.766;2022-12-07T14:04:19;5.50;;;3.22;;
46971;SDS011;32722;43.486;2.766;2022-12-07T14:06:53;6.57;;;3.47;;
46971;SDS011;32722;43.486;2.766;2022-12-07T14:09:20;6.68;;;3.20;;
46971;SDS011;32722;43.486;2.766;2022-12-07T14:11:47;4.45;;;2.53;;
46971;SDS011;32722;43.486;2.766;2022-12-07T14:14:18;3.70;;;2.67;;
46971;SDS011;32722;43.486;2.766;2022-12-07T14:22:05;4.57;;;1.92;;
46971;SDS011;32722;43.486;2.766;2022-12-07T14:24:40;2.67;;;1.63;;
46971;SDS011;32722;43.486;2.766;2022-12-07T14:27:15;4.72;;;2.30;;
46971;SDS011;32722;43.486;2.766;2022-12-07T14:29:42;20.80;;;6.28;;
46971;SDS011;32722;43.486;2.766;2022-12-07T14:32:25;9.00;;;4.00;;
46971;SDS011;32722;43.486;2.766;2022-12-07T14:35:02;16.92;;;6.05;;
46971;SDS011;32722;43.486;2.766;2022-12-07T14:37:28;22.00;;;8.73;;
46971;SDS011;32722;43.486;2.766;2022-12-07T14:39:55;25.75;;;9.70;;
46971;SDS011;32722;43.486;2.766;2022-12-07T14:42:21;8.80;;;4.60;;
46971;SDS011;32722;43.486;2.766;2022-12-07T14:44:49;4.93;;;2.47;;
46971;SDS011;32722;43.486;2.766;2022-12-07T14:47:15;12.90;;;6.30;;
46971;SDS011;32722;43.486;2.766;2022-12-07T14:49:41;16.67;;;7.63;;
46971;SDS011;32722;43.486;2.766;2022-12-07T14:52:11;13.38;;;7.05;;
46971;SDS011;32722;43.486;2.766;2022-12-07T14:54:39;19.73;;;9.13;;
46971;SDS011;32722;43.486;2.766;2022-12-07T14:57:08;14.55;;;7.18;;
46971;SDS011;32722;43.486;2.766;2022-12-07T14:59:35;60.08;;;27.92;;
46971;SDS011;32722;43.486;2.766;2022-12-07T15:02:01;12.23;;;6.28;;
46971;SDS011;32722;43.486;2.766;2022-12-07T15:04:27;34.15;;;15.27;;
46971;SDS011;32722;43.486;2.766;2022-12-07T15:06:57;33.30;;;14.85;;
46971;SDS011;32722;43.486;2.766;2022-12-07T15:09:23;17.80;;;7.88;;
46971;SDS011;32722;43.486;2.766;2022-12-07T15:11:50;17.52;;;8.02;;
46971;SDS011;32722;43.486;2.766;2022-12-07T15:14:16;26.70;;;10.65;;
46971;SDS011;32722;43.486;2.766;2022-12-07T15:16:42;9.90;;;5.18;;
46971;SDS011;32722;43.486;2.766;2022-12-07T15:19:12;8.98;;;4.97;;
46971;SDS011;32722;43.486;2.766;2022-12-07T15:21:39;9.45;;;5.32;;
46971;SDS011;32722;43.486;2.766;2022-12-07T15:24:05;5.88;;;3.88;;
46971;SDS011;32722;43.486;2.766;2022-12-07T15:26:32;14.07;;;5.25;;
46971;SDS011;32722;43.486;2.766;2022-12-07T15:28:58;10.52;;;5.55;;
46971;SDS011;32722;43.486;2.766;2022-12-07T15:31:24;12.48;;;6.05;;
46971;SDS011;32722;43.486;2.766;2022-12-07T15:33:50;8.38;;;4.47;;
46971;SDS011;32722;43.486;2.766;2022-12-07T15:36:20;9.43;;;4.88;;
46971;SDS011;32722;43.486;2.766;2022-12-07T15:38:47;7.88;;;4.78;;
46971;SDS011;32722;43.486;2.766;2022-12-07T15:41:13;7.22;;;4.10;;
46971;SDS011;32722;43.486;2.766;2022-12-07T15:43:39;5.85;;;3.35;;
46971;SDS011;32722;43.486;2.766;2022-12-07T15:46:28;9.15;;;4.95;;
46971;SDS011;32722;43.486;2.766;2022-12-07T15:48:54;13.45;;;6.32;;
46971;SDS011;32722;43.486;2.766;2022-12-07T15:51:21;10.18;;;5.75;;
46971;SDS011;32722;43.486;2.766;2022-12-07T15:53:47;11.95;;;6.53;;
46971;SDS011;32722;43.486;2.766;2022-12-07T15:56:13;7.85;;;4.32;;
46971;SDS011;32722;43.486;2.766;2022-12-07T15:58:39;7.40;;;4.68;;
46971;SDS011;32722;43.486;2.766;2022-12-07T16:01:12;8.45;;;4.40;;
46971;SDS011;32722;43.486;2.766;2022-12-07T16:03:38;7.47;;;3.70;;
46971;SDS011;32722;43.486;2.766;2022-12-07T16:06:05;6.88;;;3.53;;
46971;SDS011;32722;43.486;2.766;2022-12-07T16:08:31;7.45;;;2.67;;
46971;SDS011;32722;43.486;2.766;2022-12-07T16:10:57;8.00;;;3.55;;
46971;SDS011;32722;43.486;2.766;2022-12-07T16:13:23;6.53;;;4.75;;
46971;SDS011;32722;43.486;2.766;2022-12-07T16:15:50;4.60;;;3.00;;
46971;SDS011;32722;43.486;2.766;2022-12-07T16:18:16;5.03;;;2.97;;
46971;SDS011;32722;43.486;2.766;2022-12-07T16:20:42;7.60;;;2.28;;
46971;SDS011;32722;43.486;2.766;2022-12-07T16:23:08;4.50;;;3.00;;
46971;SDS011;32722;43.486;2.766;2022-12-07T16:25:34;6.28;;;2.75;;
46971;SDS011;32722;43.486;2.766;2022-12-07T16:28:01;4.45;;;2.50;;
46971;SDS011;32722;43.486;2.766;2022-12-07T16:30:27;3.67;;;2.55;;
46971;SDS011;32722;43.486;2.766;2022-12-07T16:32:53;5.82;;;3.00;;
46971;SDS011;32722;43.486;2.766;2022-12-07T16:35:19;5.18;;;2.90;;
46971;SDS011;32722;43.486;2.766;2022-12-07T16:37:45;10.75;;;5.07;;
46971;SDS011;32722;43.486;2.766;2022-12-07T16:40:11;20.48;;;7.82;;
46971;SDS011;32722;43.486;2.766;2022-12-07T16:42:38;11.60;;;5.15;;
46971;SDS011;32722;43.486;2.766;2022-12-07T16:45:04;8.45;;;4.00;;
46971;SDS011;32722;43.486;2.766;2022-12-07T16:47:30;10.35;;;4.70;;
46971;SDS011;32722;43.486;2.766;2022-12-07T16:49:56;11.55;;;5.30;;
46971;SDS011;32722;43.486;2.766;2022-12-07T16:52:23;13.25;;;6.50;;